Time,TemperatureF,DewpointF,PressureIn,WindDirection,WindDirectionDegrees,WindSpeedMPH,WindSpeedGustMPH,Humidity,HourlyPrecipIn,Conditions,Clouds,dailyrainin,SoftwareType,DateUTC
2013-11-09 00:11:00,37.6,28.7,30.11,East,90,0.0,-999.0,70,-99.99,,,0.00,Acu-Link.com,2013-11-09 05:11:00,
2013-11-09 00:26:00,37.0,28.8,30.11,WSW,247,0.0,-999.0,72,-99.99,,,0.00,Acu-Link.com,2013-11-09 05:26:00,
2013-11-09 00:41:00,36.7,28.9,30.11,SE,135,0.0,-999.0,73,-99.99,,,0.00,Acu-Link.com,2013-11-09 05:41:00,
2013-11-09 00:57:00,36.7,28.5,30.11,SSW,202,0.0,-999.0,72,-99.99,,,0.00,Acu-Link.com,2013-11-09 05:57:00,
2013-11-09 01:12:00,36.1,27.6,30.11,ENE,67,0.0,-999.0,71,-99.99,,,0.00,Acu-Link.com,2013-11-09 06:12:00,
2013-11-09 01:27:00,35.6,29.1,30.11,ESE,112,0.0,-999.0,77,-99.99,,,0.00,Acu-Link.com,2013-11-09 06:27:00,
2013-11-09 01:42:00,34.5,28.0,30.12,ENE,67,0.0,-999.0,77,-99.99,,,0.00,Acu-Link.com,2013-11-09 06:42:00,
2013-11-09 01:57:00,33.8,28.3,30.11,NNE,22,0.0,-999.0,80,-99.99,,,0.00,Acu-Link.com,2013-11-09 06:57:00,
2013-11-09 02:13:00,32.9,28.0,30.11,NNE,22,0.0,-999.0,82,-99.99,,,0.00,Acu-Link.com,2013-11-09 07:13:00,
2013-11-09 02:28:00,32.2,28.5,30.11,NE,45,0.0,-999.0,86,-99.99,,,0.00,Acu-Link.com,2013-11-09 07:28:00,
2013-11-09 02:43:00,31.8,27.8,30.13,East,90,0.0,-999.0,85,-99.99,,,0.00,Acu-Link.com,2013-11-09 07:43:00,
2013-11-09 02:58:00,31.1,27.4,30.13,ENE,67,0.0,-999.0,86,-99.99,,,0.00,Acu-Link.com,2013-11-09 07:58:00,
2013-11-09 03:13:00,30.6,27.5,30.13,NW,315,0.0,-999.0,88,-99.99,,,0.00,Acu-Link.com,2013-11-09 08:13:00,
2013-11-09 03:28:00,30.2,27.6,30.13,NNE,22,0.0,-999.0,90,-99.99,,,0.00,Acu-Link.com,2013-11-09 08:28:00,
2013-11-09 03:43:00,30.0,27.2,30.12,NNE,22,0.0,-999.0,89,-99.99,,,0.00,Acu-Link.com,2013-11-09 08:43:00,
2013-11-09 03:58:00,29.1,26.8,30.13,NNE,22,0.0,-999.0,91,-99.99,,,0.00,Acu-Link.com,2013-11-09 08:58:00,
2013-11-09 04:14:00,28.9,26.6,30.14,ESE,112,0.0,-999.0,91,-99.99,,,0.00,Acu-Link.com,2013-11-09 09:14:00,
2013-11-09 04:29:00,28.6,26.6,30.14,NE,45,0.0,-999.0,92,-99.99,,,0.00,Acu-Link.com,2013-11-09 09:29:00,
2013-11-09 04:44:00,28.4,26.4,30.14,ESE,112,0.0,-999.0,92,-99.99,,,0.00,Acu-Link.com,2013-11-09 09:44:00,
2013-11-09 04:59:00,28.2,26.2,30.14,NNE,22,0.0,-999.0,92,-99.99,,,0.00,Acu-Link.com,2013-11-09 09:59:00,
2013-11-09 05:14:00,28.0,26.0,30.14,East,90,0.0,-999.0,92,-99.99,,,0.00,Acu-Link.com,2013-11-09 10:14:00,
2013-11-09 05:29:00,27.7,25.9,30.14,NE,45,0.0,-999.0,93,-99.99,,,0.00,Acu-Link.com,2013-11-09 10:29:00,
2013-11-09 05:44:00,27.9,26.1,30.14,North,0,0.0,-999.0,93,-99.99,,,0.00,Acu-Link.com,2013-11-09 10:44:00,
2013-11-09 06:00:00,28.2,26.4,30.13,WNW,292,0.0,-999.0,93,-99.99,,,0.00,Acu-Link.com,2013-11-09 11:00:00,
2013-11-09 06:15:00,28.6,26.8,30.13,NNE,22,0.0,-999.0,93,-99.99,,,0.00,Acu-Link.com,2013-11-09 11:15:00,
2013-11-09 06:30:00,29.1,27.6,30.14,SSW,202,0.0,-999.0,94,-99.99,,,0.00,Acu-Link.com,2013-11-09 11:30:00,
2013-11-09 06:45:00,29.3,27.5,30.14,ESE,112,0.0,-999.0,93,-99.99,,,0.00,Acu-Link.com,2013-11-09 11:45:00,
2013-11-09 07:00:00,29.5,27.7,30.14,WNW,292,0.0,-999.0,93,-99.99,,,0.00,Acu-Link.com,2013-11-09 12:00:00,
2013-11-09 07:16:00,29.8,28.0,30.15,SSE,157,0.0,-999.0,93,-99.99,,,0.00,Acu-Link.com,2013-11-09 12:16:00,
2013-11-09 07:31:00,30.2,28.4,30.15,East,90,0.0,-999.0,93,-99.99,,,0.00,Acu-Link.com,2013-11-09 12:31:00,
2013-11-09 07:46:00,30.4,28.6,30.14,West,270,0.0,-999.0,93,-99.99,,,0.00,Acu-Link.com,2013-11-09 12:46:00,
2013-11-09 08:01:00,31.1,29.1,30.12,West,270,0.0,-999.0,92,-99.99,,,0.00,Acu-Link.com,2013-11-09 13:01:00,
2013-11-09 08:16:00,31.5,29.2,30.13,SW,225,0.0,-999.0,91,-99.99,,,0.00,Acu-Link.com,2013-11-09 13:16:00,
2013-11-09 08:31:00,32.4,29.8,30.13,SSW,202,0.0,-999.0,90,-99.99,,,0.00,Acu-Link.com,2013-11-09 13:31:00,
2013-11-09 08:47:00,32.7,29.8,30.13,South,180,0.0,-999.0,89,-99.99,,,0.00,Acu-Link.com,2013-11-09 13:47:00,
2013-11-09 09:02:00,33.3,30.1,30.13,SE,135,0.0,-999.0,88,-99.99,,,0.00,Acu-Link.com,2013-11-09 14:02:00,
2013-11-09 09:17:00,34.0,30.5,30.13,ENE,67,0.0,-999.0,87,-99.99,,,0.00,Acu-Link.com,2013-11-09 14:17:00,
2013-11-09 09:32:00,35.1,30.8,30.13,West,270,0.0,-999.0,84,-99.99,,,0.00,Acu-Link.com,2013-11-09 14:32:00,
2013-11-09 09:47:00,36.9,31.3,30.11,ESE,112,0.0,-999.0,80,-99.99,,,0.00,Acu-Link.com,2013-11-09 14:47:00,
2013-11-09 10:02:00,38.1,30.9,30.10,SSE,157,0.0,-999.0,75,-99.99,,,0.00,Acu-Link.com,2013-11-09 15:02:00,
2013-11-09 10:17:00,38.8,29.9,30.10,SSE,157,1.1,-999.0,70,-99.99,,,0.00,Acu-Link.com,2013-11-09 15:17:00,
2013-11-09 10:32:00,41.2,29.2,30.09,ESE,112,2.7,-999.0,62,-99.99,,,0.00,Acu-Link.com,2013-11-09 15:32:00,
2013-11-09 10:48:00,42.6,29.3,30.07,ESE,112,3.2,-999.0,59,-99.99,,,0.00,Acu-Link.com,2013-11-09 15:48:00,
2013-11-09 11:03:00,43.7,28.6,30.07,South,180,5.3,-999.0,55,-99.99,,,0.00,Acu-Link.com,2013-11-09 16:03:00,
2013-11-09 11:18:00,43.3,28.7,30.05,SSE,157,4.2,-999.0,56,-99.99,,,0.00,Acu-Link.com,2013-11-09 16:18:00,
2013-11-09 11:33:00,44.2,29.1,30.04,SSE,157,3.7,-999.0,55,-99.99,,,0.00,Acu-Link.com,2013-11-09 16:33:00,
2013-11-09 11:48:00,45.5,29.8,30.02,ESE,112,3.2,-999.0,54,-99.99,,,0.00,Acu-Link.com,2013-11-09 16:48:00,
2013-11-09 12:03:00,47.3,30.6,30.01,SSE,157,2.7,-999.0,52,-99.99,,,0.00,Acu-Link.com,2013-11-09 17:03:00,
2013-11-09 12:18:00,46.9,29.7,30.00,SW,225,3.7,-999.0,51,-99.99,,,0.00,Acu-Link.com,2013-11-09 17:18:00,
2013-11-09 12:34:00,47.3,30.6,29.98,SSW,202,3.2,-999.0,52,-99.99,,,0.00,Acu-Link.com,2013-11-09 17:34:00,
2013-11-09 12:49:00,47.8,30.6,29.95,South,180,2.7,-999.0,51,-99.99,,,0.00,Acu-Link.com,2013-11-09 17:49:00,
2013-11-09 13:04:00,48.7,30.4,29.95,SW,225,0.0,-999.0,49,-99.99,,,0.00,Acu-Link.com,2013-11-09 18:04:00,
2013-11-09 13:19:00,48.4,30.6,29.94,NE,45,2.2,-999.0,50,-99.99,,,0.00,Acu-Link.com,2013-11-09 18:19:00,
2013-11-09 13:34:00,50.7,31.2,29.93,ESE,112,4.2,-999.0,47,-99.99,,,0.00,Acu-Link.com,2013-11-09 18:34:00,
2013-11-09 13:49:00,49.6,30.2,29.92,ESE,112,6.3,-999.0,47,-99.99,,,0.00,Acu-Link.com,2013-11-09 18:49:00,
2013-11-09 14:04:00,48.9,30.1,29.90,WNW,292,2.7,-999.0,48,-99.99,,,0.00,Acu-Link.com,2013-11-09 19:04:00,
2013-11-09 14:20:00,48.6,29.3,29.89,WNW,292,1.7,-999.0,47,-99.99,,,0.00,Acu-Link.com,2013-11-09 19:20:00,
2013-11-09 14:39:00,49.5,30.6,29.88,West,270,3.2,-999.0,48,-99.99,,,0.00,Acu-Link.com,2013-11-09 19:39:00,
2013-11-09 15:27:00,49.5,30.6,29.86,SSE,157,0.0,-999.0,48,-99.99,,,0.00,Acu-Link.com,2013-11-09 20:27:00,
2013-11-09 15:44:00,51.1,30.5,29.85,SSE,157,3.2,-999.0,45,-99.99,,,0.00,Acu-Link.com,2013-11-09 20:44:00,
2013-11-09 16:04:00,51.1,30.5,29.84,SSW,202,2.7,-999.0,45,-99.99,,,0.00,Acu-Link.com,2013-11-09 21:04:00,
2013-11-09 16:20:00,49.6,29.7,29.83,SSE,157,3.2,-999.0,46,-99.99,,,0.00,Acu-Link.com,2013-11-09 21:20:00,
2013-11-09 16:36:00,47.7,30.0,29.83,NE,45,2.2,-999.0,50,-99.99,,,0.00,Acu-Link.com,2013-11-09 21:36:00,
2013-11-09 16:55:00,47.1,29.4,29.82,SE,135,3.7,-999.0,50,-99.99,,,0.00,Acu-Link.com,2013-11-09 21:55:00,
2013-11-09 17:10:00,46.6,30.4,29.83,ESE,112,2.7,-999.0,53,-99.99,,,0.00,Acu-Link.com,2013-11-09 22:10:00,
2013-11-09 17:25:00,46.4,29.3,29.83,SSE,157,2.2,-999.0,51,-99.99,,,0.00,Acu-Link.com,2013-11-09 22:25:00,
2013-11-09 17:40:00,45.7,29.6,29.84,NE,45,0.0,-999.0,53,-99.99,,,0.00,Acu-Link.com,2013-11-09 22:40:00,
2013-11-09 17:55:00,44.8,29.2,29.84,ESE,112,0.0,-999.0,54,-99.99,,,0.00,Acu-Link.com,2013-11-09 22:55:00,
2013-11-09 18:10:00,44.1,30.3,29.85,ENE,67,0.0,-999.0,58,-99.99,,,0.00,Acu-Link.com,2013-11-09 23:10:00,
2013-11-09 18:26:00,43.0,30.5,29.84,East,90,0.0,-999.0,61,-99.99,,,0.00,Acu-Link.com,2013-11-09 23:26:00,
2013-11-09 18:41:00,42.6,30.9,29.84,NNE,22,0.0,-999.0,63,-99.99,,,0.00,Acu-Link.com,2013-11-09 23:41:00,
2013-11-09 18:56:00,42.3,32.5,29.83,ENE,67,0.0,-999.0,68,-99.99,,,0.00,Acu-Link.com,2013-11-09 23:56:00,
2013-11-09 19:11:00,42.1,33.7,29.83,SSW,202,0.0,-999.0,72,-99.99,,,0.00,Acu-Link.com,2013-11-10 00:11:00,
2013-11-09 19:26:00,41.9,32.5,29.83,NE,45,0.0,-999.0,69,-99.99,,,0.00,Acu-Link.com,2013-11-10 00:26:00,
2013-11-09 19:41:00,41.5,32.8,29.82,East,90,0.0,-999.0,71,-99.99,,,0.00,Acu-Link.com,2013-11-10 00:41:00,
2013-11-09 19:56:00,41.5,33.2,29.83,SW,225,0.0,-999.0,72,-99.99,,,0.00,Acu-Link.com,2013-11-10 00:56:00,
2013-11-09 20:11:00,41.5,33.2,29.82,SW,225,2.2,-999.0,72,-99.99,,,0.00,Acu-Link.com,2013-11-10 01:11:00,
2013-11-09 20:26:00,41.5,33.5,29.82,ESE,112,0.0,-999.0,73,-99.99,,,0.00,Acu-Link.com,2013-11-10 01:26:00,
2013-11-09 20:41:00,41.5,33.5,29.82,West,270,2.2,-999.0,73,-99.99,,,0.00,Acu-Link.com,2013-11-10 01:41:00,
2013-11-09 20:57:00,41.5,32.8,29.80,East,90,3.7,-999.0,71,-99.99,,,0.00,Acu-Link.com,2013-11-10 01:57:00,
2013-11-09 21:12:00,42.1,34.1,29.80,West,270,0.0,-999.0,73,-99.99,,,0.00,Acu-Link.com,2013-11-10 02:12:00,
2013-11-09 21:27:00,41.7,34.4,29.79,East,90,0.0,-999.0,75,-99.99,,,0.00,Acu-Link.com,2013-11-10 02:27:00,
2013-11-09 21:42:00,41.5,34.2,29.79,ESE,112,0.0,-999.0,75,-99.99,,,0.00,Acu-Link.com,2013-11-10 02:42:00,
2013-11-09 21:57:00,41.5,34.2,29.78,NE,45,0.0,-999.0,75,-99.99,,,0.00,Acu-Link.com,2013-11-10 02:57:00,
2013-11-09 22:12:00,41.5,34.2,29.78,East,90,0.0,-999.0,75,-99.99,,,0.00,Acu-Link.com,2013-11-10 03:12:00,
2013-11-09 22:27:00,41.5,33.2,29.77,West,270,0.0,-999.0,72,-99.99,,,0.00,Acu-Link.com,2013-11-10 03:27:00,
2013-11-09 22:42:00,41.5,33.5,29.77,ESE,112,0.0,-999.0,73,-99.99,,,0.00,Acu-Link.com,2013-11-10 03:42:00,
2013-11-09 22:57:00,41.4,33.7,29.76,NE,45,0.0,-999.0,74,-99.99,,,0.00,Acu-Link.com,2013-11-10 03:57:00,
2013-11-09 23:13:00,41.2,33.9,29.76,SE,135,0.0,-999.0,75,-99.99,,,0.00,Acu-Link.com,2013-11-10 04:13:00,
2013-11-09 23:28:00,40.8,33.2,29.76,NNE,22,0.0,-999.0,74,-99.99,,,0.00,Acu-Link.com,2013-11-10 04:28:00,
2013-11-09 23:43:00,40.6,33.3,29.75,ESE,112,0.0,-999.0,75,-99.99,,,0.00,Acu-Link.com,2013-11-10 04:43:00,
2013-11-09 23:58:00,40.1,33.2,29.75,ENE,67,0.0,-999.0,76,-99.99,,,0.00,Acu-Link.com,2013-11-10 04:58:00,